• Join FlightAware (Why Join?)
  • Login
  • US Flag 
12:07PM EDT


 

Airport Tracker/Info


-or-


 

Live Flight TrackerFlight Track Log ✈ VH-OJU ✈ 31-May-2013 ✈ WSSS / SIN - YBBN / BNE

Flight Track Log - Related Links

Times and Time Zones

All times are in EDT time to prevent confusion due to time zone crossing. See the VH-OJU flight status page for this flight to view local times or setup timezone preferences in your user account.

Time Position Orientation Groundspeed Altitude Reporting Facility
EDT Latitude Longitude Course Direction KTS MPH feet Rate Location/Type
08:25AM 1.2763 104.1001 125° Southeast  Level Estimated
08:26AM 1.1969 104.2127 125° Southeast  Level Estimated
08:27AM 1.1174 104.3253 125° Southeast  Level Estimated
08:28AM 1.0380 104.4380 125° Southeast  Level Estimated
08:29AM 0.9585 104.5506 125° Southeast  Level Estimated
08:30AM 0.8791 104.6632 125° Southeast  Level Estimated
08:31AM 0.7997 104.7758 125° Southeast  Level Estimated
08:32AM 0.7202 104.8884 125° Southeast  Level Estimated
08:33AM 0.6407 105.0010 125° Southeast  Level Estimated
08:34AM 0.5613 105.1136 125° Southeast  Level Estimated
08:35AM 0.4818 105.2262 125° Southeast  Level Estimated
08:36AM 0.4024 105.3387 125° Southeast  Level Estimated
08:37AM 0.3229 105.4513 125° Southeast  Level Estimated
08:38AM 0.2435 105.5639 125° Southeast  Level Estimated
08:39AM 0.1640 105.6765 125° Southeast  Level Estimated
08:40AM 0.0845 105.7890 125° Southeast  Level Estimated
08:41AM 0.0050 105.9016 125° Southeast  Level Estimated
08:42AM -0.0744 106.0142 125° Southeast  Level Estimated
08:43AM -0.1539 106.1268 125° Southeast  Level Estimated
08:44AM -0.2334 106.2394 125° Southeast  Level Estimated
08:45AM -0.3128 106.3520 125° Southeast  Level Estimated
08:46AM -0.3923 106.4645 125° Southeast  Level Estimated
08:47AM -0.4717 106.5771 125° Southeast  Level Estimated
08:48AM -0.5512 106.6897 125° Southeast  Level Estimated
08:49AM -0.6307 106.8023 125° Southeast  Level Estimated
08:50AM -0.7101 106.9149 125° Southeast  Level Estimated
08:51AM -0.7896 107.0275 125° Southeast  Level Estimated
08:52AM -0.8690 107.1401 125° Southeast  Level Estimated
08:53AM -0.9485 107.2527 125° Southeast  Level Estimated
08:54AM -1.0279 107.3653 125° Southeast  Level Estimated
08:55AM -1.1074 107.4779 125° Southeast  Level Estimated
08:56AM -1.1868 107.5905 125° Southeast  Level Estimated
08:57AM -1.2662 107.7032 125° Southeast  Level Estimated
08:58AM -1.3456 107.8158 125° Southeast  Level Estimated
08:59AM -1.4251 107.9285 125° Southeast  Level Estimated
09:00AM -1.5045 108.0411 125° Southeast  Level Estimated
09:01AM -1.5839 108.1538 125° Southeast  Level Estimated
09:02AM -1.6633 108.2664 125° Southeast  Level Estimated
09:03AM -1.7427 108.3791 125° Southeast  Level Estimated
09:04AM -1.8221 108.4918 125° Southeast  Level Estimated
09:05AM -1.9015 108.6045 125° Southeast  Level Estimated
09:06AM -1.9808 108.7172 125° Southeast  Level Estimated
09:07AM -2.0602 108.8299 125° Southeast  Level Estimated
09:08AM -2.1395 108.9427 125° Southeast  Level Estimated
09:09AM -2.2189 109.0554 125° Southeast  Level Estimated
09:10AM -2.2982 109.1682 125° Southeast  Level Estimated
09:11AM -2.3776 109.2809 125° Southeast  Level Estimated
09:12AM -2.4569 109.3937 125° Southeast  Level Estimated
09:13AM -2.5362 109.5065 125° Southeast  Level Estimated
09:14AM -2.6155 109.6193 125° Southeast  Level Estimated
09:15AM -2.6910 109.7267 125° Southeast  Level Estimated
09:16AM -2.7666 109.8342 125° Southeast  Level Estimated
09:17AM -2.8421 109.9417 125° Southeast  Level Estimated
09:18AM -2.9176 110.0492 125° Southeast  Level Estimated
09:19AM -2.9931 110.1567 125° Southeast  Level Estimated
09:20AM -3.0685 110.2642 125° Southeast  Level Estimated
09:21AM -3.1440 110.3718 125° Southeast  Level Estimated
09:22AM -3.2195 110.4793 125° Southeast  Level Estimated
09:23AM -3.2949 110.5869 125° Southeast  Level Estimated
09:24AM -3.3703 110.6945 125° Southeast  Level Estimated
09:25AM -3.4457 110.8021 125° Southeast  Level Estimated
09:26AM -3.5212 110.9098 125° Southeast  Level Estimated
09:27AM -3.5966 111.0174 125° Southeast  Level Estimated
09:28AM -3.6719 111.1251 125° Southeast  Level Estimated
09:29AM -3.7473 111.2327 125° Southeast  Level Estimated
09:30AM -3.8227 111.3404 125° Southeast  Level Estimated
09:31AM -3.8980 111.4482 125° Southeast  Level Estimated
09:32AM -3.9733 111.5559 125° Southeast  Level Estimated
09:33AM -4.0487 111.6637 125° Southeast  Level Estimated
09:34AM -4.1240 111.7714 125° Southeast  Level Estimated
09:35AM -4.1993 111.8792 125° Southeast  Level Estimated
09:36AM -4.2745 111.9871 125° Southeast  Level Estimated
09:37AM -4.3498 112.0949 125° Southeast  Level Estimated
09:38AM -4.4250 112.2028 125° Southeast  Level Estimated
09:39AM -4.5002 112.3106 125° Southeast  Level Estimated
09:40AM -4.5755 112.4185 125° Southeast  Level Estimated
09:41AM -4.6507 112.5265 125° Southeast  Level Estimated
09:42AM -4.7258 112.6344 125° Southeast  Level Estimated
09:43AM -4.8010 112.7424 125° Southeast  Level Estimated
09:44AM -4.8761 112.8504 125° Southeast  Level Estimated
09:45AM -4.9513 112.9584 125° Southeast  Level Estimated
09:46AM -5.0264 113.0665 125° Southeast  Level Estimated
09:47AM -5.1015 113.1745 125° Southeast  Level Estimated
09:48AM -5.1765 113.2826 125° Southeast  Level Estimated
09:49AM -5.2516 113.3907 125° Southeast  Level Estimated
09:50AM -5.3266 113.4989 125° Southeast  Level Estimated
09:51AM -5.4016 113.6071 125° Southeast  Level Estimated
09:52AM -5.4767 113.7153 125° Southeast  Level Estimated
09:53AM -5.5516 113.8235 125° Southeast  Level Estimated
09:54AM -5.6266 113.9317 125° Southeast  Level Estimated
09:55AM -5.7015 114.0400 125° Southeast  Level Estimated
09:56AM -5.7765 114.1483 125° Southeast  Level Estimated
09:57AM -5.8513 114.2567 125° Southeast  Level Estimated
09:58AM -5.9262 114.3651 125° Southeast  Level Estimated
09:59AM -6.0011 114.4734 125° Southeast  Level Estimated
09:59AM -5.8220 112.7350 125° Southeast 483 556 35,000  Level FlightAware
10:00AM -6.0759 114.5819 125° Southeast  Level Estimated
10:00AM -5.8840 112.8140 128° Southeast 484 557 35,000  Level FlightAware
10:00AM -5.9370 112.8840 127° Southeast 485 558 35,000  Level FlightAware
10:02AM -6.0730 113.0610 128° Southeast 484 557 35,000  Level FlightAware
10:03AM -6.1150 113.1180 127° Southeast 484 557 35,000  Level FlightAware
10:03AM -6.1920 113.2160 128° Southeast 482 555 35,000  Level FlightAware
10:04AM -6.2550 113.2960 128° Southeast 484 557 35,000  Level FlightAware
10:05AM -6.3130 113.3550 135° Southeast 488 562 35,000  Level FlightAware
10:05AM -6.3910 113.4220 140° Southeast 491 565 35,000  Level FlightAware
10:06AM -6.4670 113.4850 141° Southeast 494 568 35,000  Level FlightAware
10:07AM -6.5620 113.5670 139° Southeast 495 570 35,000  Level FlightAware
10:08AM -6.6330 113.6260 140° Southeast 496 571 35,000  Level FlightAware
10:08AM -6.7100 113.6910 140° Southeast 496 571 35,000  Level FlightAware
10:09AM -6.7800 113.7510 140° Southeast 495 570 35,000  Level FlightAware
10:10AM -6.8730 113.8290 140° Southeast 493 567 35,000  Level FlightAware
10:10AM -6.9140 113.8650 139° Southeast 493 567 35,000  Level FlightAware
10:11AM -7.0100 113.9450 140° Southeast 495 570 35,000  Level FlightAware
10:12AM -7.0830 114.0090 139° Southeast 495 570 35,000  Level FlightAware
10:13AM -7.1370 114.0560 139° Southeast 495 570 35,000  Level FlightAware
10:13AM -7.2310 114.1340 141° Southeast 487 560 35,000  Level FlightAware
10:14AM -7.3160 114.2050 140° Southeast 488 562 35,000  Level FlightAware
10:15AM -7.3760 114.2580 139° Southeast 489 563 35,000  Level FlightAware
10:16AM -7.4540 114.3230 140° Southeast 485 558 35,000  Level FlightAware
10:16AM -7.5100 114.3720 139° Southeast 485 558 35,000  Level FlightAware
10:17AM -7.5970 114.4440 141° Southeast 488 562 35,000  Level FlightAware
10:18AM -7.6940 114.5270 140° Southeast 488 562 35,000  Level FlightAware
10:19AM -7.7780 114.5980 140° Southeast 490 564 35,000  Level FlightAware
10:19AM -7.8480 114.6590 139° Southeast 490 564 35,000  Level FlightAware
10:20AM -7.9240 114.7220 141° Southeast 490 564 35,000  Level FlightAware
10:21AM -7.9960 114.7850 139° Southeast 490 564 35,000  Level FlightAware
10:21AM -8.0660 114.8440 140° Southeast 490 564 35,000  Level FlightAware
10:22AM -8.1250 114.8940 140° Southeast 490 564 35,000  Level FlightAware
10:23AM -8.2150 114.9710 140° Southeast 489 563 35,000  Level FlightAware
10:24AM -8.2890 115.0340 140° Southeast 492 566 35,000  Level FlightAware
10:24AM -8.3620 115.0960 140° Southeast 495 570 35,000  Level FlightAware
10:25AM -8.4290 115.1540 139° Southeast 497 572 35,000  Level FlightAware
10:26AM -8.5090 115.2230 140° Southeast 496 571 35,000  Level FlightAware
10:26AM -8.5750 115.2800 140° Southeast 496 571 35,000  Level FlightAware
10:27AM -8.6580 115.3510 140° Southeast 495 570 35,000  Level FlightAware
10:28AM -8.7300 115.4120 140° Southeast 495 570 35,000  Level FlightAware
10:28AM -8.8010 115.4730 140° Southeast 495 570 35,000  Level FlightAware
10:29AM -8.8740 115.5360 140° Southeast 497 572 35,000  Level FlightAware
10:30AM -8.9510 115.6030 139° Southeast 499 574 35,000  Level FlightAware
10:31AM -9.0220 115.6630 140° Southeast 498 573 35,000  Level FlightAware
10:31AM -9.0980 115.7280 140° Southeast 497 572 35,000  Level FlightAware
10:32AM -9.1690 115.7890 140° Southeast 497 572 35,000  Level FlightAware
10:33AM -9.2490 115.8580 140° Southeast 497 572 35,000  Level FlightAware
10:33AM -9.3200 115.9190 140° Southeast 497 572 35,000  Level FlightAware
10:34AM -9.3910 115.9790 140° Southeast 495 570 35,000  Level FlightAware
10:35AM -9.4640 116.0430 139° Southeast 495 570 35,000  Level FlightAware
10:35AM -9.5460 116.0940 148° Southeast 500 575 35,000  Level FlightAware
10:36AM -9.6420 116.1240 163° South 500 575 35,000  Level FlightAware
10:37AM -9.7680 116.1620 163° South 501 577 35,000  Level FlightAware
10:38AM -9.8900 116.2020 162° South 502 578 35,000  Level FlightAware
10:39AM -9.9580 116.2250 162° South 502 578 35,000  Level FlightAware
10:39AM -10.0600 116.2720 156° South 499 574 35,000  Level FlightAware
10:40AM -10.1650 116.3130 159° South 498 573 35,000  Level FlightAware
10:41AM -10.2520 116.3490 158° South 498 573 35,000  Level FlightAware
10:42AM -10.3180 116.3760 158° South 498 573 35,000  Level FlightAware
10:43AM -10.4100 116.4140 158° South 498 573 35,000  Level FlightAware
10:43AM -10.4990 116.4510 158° South 498 573 35,000  Level FlightAware
10:44AM -10.5660 116.4780 158° South 498 573 35,000  Level FlightAware
10:45AM -10.6540 116.5140 158° South 498 573 35,000  Level FlightAware
10:46AM -10.7590 116.5570 158° South 498 573 35,000  Level FlightAware
10:46AM -10.8260 116.5850 158° South 498 573 35,000  Level FlightAware
10:47AM -10.9110 116.6200 158° South 498 573 35,000  Level FlightAware
10:48AM -10.9730 116.6460 158° South 498 573 35,000  Level FlightAware
10:48AM -11.0570 116.6800 158° South 498 573 35,000  Level FlightAware
10:49AM -11.1240 116.7080 158° South 498 573 35,000  Level FlightAware
10:52AM -11.2860 116.9860 121° Southeast  Level Estimated
10:53AM -11.3530 117.1011 121° Southeast  Level Estimated
10:54AM -11.4199 117.2163 121° Southeast  Level Estimated
10:55AM -11.4868 117.3315 121° Southeast  Level Estimated
10:56AM -11.5536 117.4468 121° Southeast  Level Estimated
10:57AM -11.6204 117.5622 121° Southeast  Level Estimated
10:58AM -11.6871 117.6776 121° Southeast  Level Estimated
10:59AM -11.7538 117.7930 121° Southeast  Level Estimated
11:00AM -11.8204 117.9085 121° Southeast  Level Estimated
11:01AM -11.8870 118.0241 121° Southeast  Level Estimated
11:02AM -11.9536 118.1397 120° Southeast  Level Estimated
11:03AM -12.0201 118.2554 120° Southeast  Level Estimated
11:04AM -12.0865 118.3711 120° Southeast  Level Estimated
11:05AM -12.1530 118.4869 120° Southeast  Level Estimated
11:06AM -12.2193 118.6028 120° Southeast  Level Estimated
11:07AM -12.2856 118.7187 120° Southeast  Level Estimated
11:08AM -12.3519 118.8347 120° Southeast  Level Estimated
11:09AM -12.4181 118.9507 120° Southeast  Level Estimated
11:10AM -12.4843 119.0668 120° Southeast  Level Estimated
11:11AM -12.5504 119.1829 120° Southeast  Level Estimated
11:12AM -12.6164 119.2991 120° Southeast  Level Estimated
11:13AM -12.6824 119.4154 120° Southeast  Level Estimated
11:14AM -12.7484 119.5317 120° Southeast  Level Estimated
11:15AM -12.8143 119.6481 120° Southeast  Level Estimated
11:16AM -12.8802 119.7646 120° Southeast  Level Estimated
11:17AM -12.9460 119.8811 120° Southeast  Level Estimated
11:18AM -13.0117 119.9977 120° Southeast  Level Estimated
11:19AM -13.0774 120.1143 120° Southeast  Level Estimated
11:20AM -13.1431 120.2310 120° Southeast  Level Estimated
11:21AM -13.2087 120.3477 120° Southeast  Level Estimated
11:22AM -13.2742 120.4646 120° Southeast  Level Estimated
11:23AM -13.3397 120.5814 120° Southeast  Level Estimated
11:24AM -13.4052 120.6984 120° Southeast  Level Estimated
11:25AM -13.4705 120.8154 120° Southeast  Level Estimated
11:26AM -13.5359 120.9325 120° Southeast  Level Estimated
11:27AM -13.6012 121.0496 120° Southeast  Level Estimated
11:28AM -13.6664 121.1668 120° Southeast  Level Estimated
11:29AM -13.7316 121.2841 120° Southeast  Level Estimated
11:30AM -13.7967 121.4014 120° Southeast  Level Estimated
11:31AM -13.8617 121.5188 120° Southeast  Level Estimated
11:32AM -13.9267 121.6363 120° Southeast  Level Estimated
11:33AM -13.9917 121.7538 120° Southeast  Level Estimated
11:34AM -14.0566 121.8714 120° Southeast  Level Estimated
11:35AM -14.1214 121.9891 120° Southeast  Level Estimated
11:36AM -14.1861 122.1068 120° Southeast  Level Estimated
11:37AM -14.2509 122.2246 120° Southeast  Level Estimated
11:38AM -14.3155 122.3425 120° Southeast  Level Estimated
11:39AM -14.3801 122.4604 119° Southeast  Level Estimated
11:40AM -14.4447 122.5784 119° Southeast  Level Estimated
11:41AM -14.5091 122.6964 119° Southeast  Level Estimated
11:42AM -14.5736 122.8146 119° Southeast  Level Estimated
11:43AM -14.6379 122.9328 119° Southeast  Level Estimated
11:44AM -14.7022 123.0511 119° Southeast  Level Estimated
11:45AM -14.7665 123.1694 119° Southeast  Level Estimated
11:46AM -14.8307 123.2878 119° Southeast  Level Estimated
11:47AM -14.8948 123.4063 119° Southeast  Level Estimated
11:48AM -14.9588 123.5249 119° Southeast  Level Estimated
11:49AM -15.0228 123.6435 119° Southeast  Level Estimated
11:50AM -15.0868 123.7622 119° Southeast  Level Estimated
11:51AM -15.1507 123.8810 119° Southeast  Level Estimated
11:52AM -15.2145 123.9998 119° Southeast  Level Estimated
11:53AM -15.2782 124.1188 119° Southeast  Level Estimated
11:54AM -15.3419 124.2377 119° Southeast  Level Estimated
11:55AM -15.4055 124.3568 119° Southeast  Level Estimated
11:56AM -15.4691 124.4759 119° Southeast  Level Estimated
11:57AM -15.5326 124.5951 119° Southeast  Level Estimated
11:58AM -15.5960 124.7144 119° Southeast  Level Estimated
11:59AM -15.6594 124.8338 119° Southeast  Level Estimated
12:00PM -15.7227 124.9532 119° Southeast  Level Estimated
12:01PM -15.7860 125.0727 119° Southeast  Level Estimated
12:02PM -15.8491 125.1923 119° Southeast  Level Estimated
12:03PM -15.9122 125.3119 119° Southeast  Level Estimated
12:04PM -15.9753 125.4316 119° Southeast  Level Estimated
12:05PM -16.0383 125.5514 119° Southeast  Level Estimated
12:06PM -16.1012 125.6713 119° Southeast  Level Estimated
12:07PM -16.1640 125.7913 119° Southeast  Level Estimated
12:08PM -16.2268 125.9113 119° Southeast  Level Estimated
12:09PM -16.2895 126.0314 119° Southeast  Level Estimated
12:10PM -16.3522 126.1516 119° Southeast  Level Estimated
12:11PM -16.4147 126.2718 118° Southeast  Level Estimated
12:12PM -16.4773 126.3922 118° Southeast  Level Estimated
12:13PM -16.5397 126.5126 118° Southeast  Level Estimated
12:14PM -16.6021 126.6331 118° Southeast  Level Estimated
12:15PM -16.6644 126.7536 118° Southeast  Level Estimated
12:16PM -16.7266 126.8743 118° Southeast  Level Estimated
12:17PM -16.7888 126.9950 118° Southeast  Level Estimated
12:18PM -16.8508 127.1158 118° Southeast  Level Estimated
12:19PM -16.9129 127.2367 118° Southeast  Level Estimated
12:20PM -16.9748 127.3577 118° Southeast  Level Estimated
12:21PM -17.0367 127.4787 118° Southeast  Level Estimated
12:22PM -17.0985 127.5998 118° Southeast  Level Estimated
12:23PM -17.1602 127.7210 118° Southeast  Level Estimated
12:24PM -17.2219 127.8423 118° Southeast  Level Estimated
12:25PM -17.2835 127.9637 118° Southeast  Level Estimated
12:26PM -17.3450 128.0851 118° Southeast  Level Estimated
12:27PM -17.4065 128.2067 118° Southeast  Level Estimated
12:28PM -17.4678 128.3283 118° Southeast  Level Estimated
12:29PM -17.5291 128.4500 118° Southeast  Level Estimated
12:30PM -17.5903 128.5717 118° Southeast  Level Estimated
12:31PM -17.6515 128.6936 118° Southeast  Level Estimated
12:32PM -17.7125 128.8155 118° Southeast  Level Estimated
12:33PM -17.7736 128.9376 118° Southeast  Level Estimated
12:34PM -17.8345 129.0597 118° Southeast  Level Estimated
12:35PM -17.8953 129.1819 118° Southeast  Level Estimated
12:36PM -17.9561 129.3041 118° Southeast  Level Estimated
12:37PM -18.0168 129.4265 118° Southeast  Level Estimated
12:38PM -18.0774 129.5489 118° Southeast  Level Estimated
12:39PM -18.1379 129.6715 117° Southeast  Level Estimated
12:40PM -18.1984 129.7941 117° Southeast  Level Estimated
12:41PM -18.2588 129.9168 117° Southeast  Level Estimated
12:42PM -18.3191 130.0396 117° Southeast  Level Estimated
12:43PM -18.3793 130.1624 117° Southeast  Level Estimated
12:44PM -18.4394 130.2854 117° Southeast  Level Estimated
12:45PM -18.4995 130.4084 117° Southeast  Level Estimated
12:46PM -18.5595 130.5315 117° Southeast  Level Estimated
12:47PM -18.6194 130.6548 117° Southeast  Level Estimated
12:48PM -18.6792 130.7780 117° Southeast  Level Estimated
12:49PM -18.7390 130.9014 117° Southeast  Level Estimated
12:50PM -18.7987 131.0249 117° Southeast  Level Estimated
12:50PM -22.2530 131.2140 117° Southeast 538 619 37,000  Level FlightAware
12:51PM -18.8582 131.1485 117° Southeast  Level Estimated
12:51PM -22.3110 131.3110 123° Southeast 538 619 37,000  Level FlightAware
12:52PM -22.3670 131.4070 122° Southeast 539 620 37,000  Level FlightAware
12:52PM -22.4260 131.5070 123° Southeast 539 620 37,000  Level FlightAware
12:53PM -22.4790 131.5960 123° Southeast 540 621 37,000  Level FlightAware
12:54PM -22.5400 131.7010 122° Southeast 540 621 37,000  Level FlightAware
12:54PM -22.5900 131.7850 123° Southeast 540 621 37,000  Level FlightAware
12:55PM -22.6490 131.8860 122° Southeast 541 623 37,000  Level FlightAware
12:56PM -22.7050 131.9820 122° Southeast 542 624 37,000  Level FlightAware
12:56PM -22.7470 132.0530 123° Southeast 543 625 37,000  Level FlightAware
12:57PM -22.8010 132.1450 122° Southeast 544 626 37,000  Level FlightAware
12:58PM -22.8580 132.2450 122° Southeast 544 626 37,000  Level FlightAware
12:59PM -22.9360 132.3790 122° Southeast 544 626 37,000  Level FlightAware
12:59PM -22.9860 132.4640 123° Southeast 545 627 37,000  Level FlightAware
01:00PM -23.0420 132.5620 122° Southeast 547 629 37,000  Level FlightAware
01:01PM -23.1040 132.6690 122° Southeast 546 628 37,000  Level FlightAware
01:01PM -23.1610 132.7690 122° Southeast 547 629 37,000  Level FlightAware
01:02PM -23.2130 132.8580 122° Southeast 547 629 37,000  Level FlightAware
01:03PM -23.2610 132.9420 122° Southeast 548 631 37,000  Level FlightAware
01:03PM -23.3300 133.0640 122° Southeast 548 631 37,000  Level FlightAware
01:04PM -23.3800 133.1500 122° Southeast 549 632 37,000  Level FlightAware
01:05PM -23.4670 133.3030 122° Southeast 547 629 37,000  Level FlightAware
01:06PM -23.5370 133.4250 122° Southeast 548 631 37,000  Level FlightAware
01:07PM -23.5940 133.5260 122° Southeast 548 631 37,000  Level FlightAware
01:07PM -23.6480 133.6220 122° Southeast 546 628 37,000  Level FlightAware
01:08PM -23.7070 133.7260 122° Southeast 546 628 37,000  Level FlightAware
01:09PM -23.7570 133.8150 122° Southeast 547 629 37,000  Level FlightAware
01:09PM -23.7980 133.9100 115° Southeast 549 632 37,000  Level FlightAware
01:10PM -23.8320 134.0400 106° East 548 631 37,000  Level FlightAware
01:11PM -23.8590 134.1530 105° East 548 631 37,000  Level FlightAware
01:12PM -23.8830 134.2580 104° East 547 629 37,000  Level FlightAware
01:12PM -23.9120 134.3780 105° East 548 631 37,000  Level FlightAware
01:13PM -23.9390 134.4940 104° East 549 632 37,000  Level FlightAware
01:14PM -23.9650 134.6040 105° East 550 633 37,000  Level FlightAware
01:14PM -23.9910 134.7140 105° East 551 634 37,000  Level FlightAware
01:15PM -24.0170 134.8270 104° East 550 633 37,000  Level FlightAware
01:16PM -24.0450 134.9460 104° East 549 632 37,000  Level FlightAware
01:17PM -24.0700 135.0540 104° East 550 633 37,000  Level FlightAware
01:17PM -24.0980 135.1730 104° East 550 633 37,000  Level FlightAware
01:18PM -24.1190 135.2670 104° East 549 632 37,000  Level FlightAware
01:19PM -24.1490 135.3990 104° East 549 632 37,000  Level FlightAware
01:19PM -24.1740 135.5070 104° East 549 632 37,000  Level FlightAware
01:20PM -24.2090 135.6630 104° East 550 633 37,000  Level FlightAware
01:21PM -24.2350 135.7770 104° East 551 634 37,000  Level FlightAware
01:22PM -24.2590 135.8820 104° East 551 634 37,000  Level FlightAware
01:22PM -24.2870 136.0040 104° East 550 633 37,000  Level FlightAware
01:23PM -24.3100 136.1070 104° East 550 633 37,000  Level FlightAware
01:24PM -24.3370 136.2290 104° East 549 632 37,000  Level FlightAware
01:25PM -24.3610 136.3370 104° East 549 632 37,000  Level FlightAware
01:26PM -24.4120 136.5680 104° East 550 633 37,000  Level FlightAware
01:27PM -24.4360 136.6790 103° East 551 634 37,000  Level FlightAware
01:27PM -24.4630 136.7990 104° East 551 634 37,000  Level FlightAware
01:28PM -24.4860 136.9070 103° East 551 634 37,000  Level FlightAware
01:29PM -24.5130 137.0300 104° East 551 634 37,000  Level FlightAware
01:29PM -24.5380 137.1470 103° East 550 633 37,000  Level FlightAware
01:30PM -24.5600 137.2500 103° East 549 632 37,000  Level FlightAware
01:31PM -24.5940 137.4100 103° East 546 628 37,000  Level FlightAware
01:32PM -24.6150 137.5070 103° East 547 629 37,000  Level FlightAware
01:33PM -24.6480 137.6640 103° East 548 631 37,000  Level FlightAware
01:33PM -24.6650 137.7450 103° East 548 631 37,000  Level FlightAware
01:34PM -24.6880 137.8560 103° East 548 631 37,000  Level FlightAware
01:35PM -24.7150 137.9850 103° East 548 631 37,000  Level FlightAware
01:36PM -24.7330 138.0710 103° East 548 631 37,000  Level FlightAware
01:36PM -24.7560 138.1770 103° East 548 631 37,000  Level FlightAware
01:37PM -24.7740 138.2630 103° East 548 631 37,000  Level FlightAware
01:38PM -24.8050 138.4110 103° East 548 631 37,000  Level FlightAware
01:39PM -24.8210 138.4890 103° East 548 631 37,000  Level FlightAware
01:39PM -24.8430 138.5960 103° East 548 631 37,000  Level FlightAware
01:40PM -24.8720 138.7320 103° East 548 631 37,000  Level FlightAware
01:41PM -24.8880 138.8110 103° East 548 631 37,000  Level FlightAware
01:42PM -24.9120 138.9220 103° East 548 631 37,000  Level FlightAware
01:42PM -24.9290 139.0060 103° East 548 631 37,000  Level FlightAware
01:43PM -24.9530 139.1190 103° East 548 631 37,000  Level FlightAware
01:44PM -24.9700 139.2020 103° East 548 631 37,000  Level FlightAware
01:45PM -24.9940 139.3160 103° East 548 631 37,000  Level FlightAware
01:45PM -25.0110 139.3990 103° East 548 631 37,000  Level FlightAware
01:46PM -25.0340 139.5060 103° East 548 631 37,000  Level FlightAware
01:47PM -25.0520 139.5920 103° East 548 631 37,000 300 Level FlightAware
01:49PM -25.1114 139.8594 104° East  Level Estimated
01:50PM -25.1424 140.0003 104° East  Level Estimated
01:51PM -25.1733 140.1412 104° East  Level Estimated
01:52PM -25.2041 140.2822 104° East  Level Estimated
01:52PM -25.3030 140.9490 104° East 559 643 39,000  Level FlightAware
01:53PM -25.2348 140.4233 104° East  Level Estimated
01:53PM -25.3240 141.0590 102° East 559 643 39,000  Level FlightAware
01:54PM -25.3500 141.1980 102° East 559 643 39,000  Level FlightAware
01:55PM -25.3700 141.3080 101° East 559 643 39,000  Level FlightAware
01:55PM -25.3810 141.3720 101° East 559 643 39,000  Level FlightAware
01:56PM -25.4030 141.4870 102° East 559 643 39,000  Level FlightAware
01:56PM -25.4200 141.5850 101° East 559 643 39,000  Level FlightAware
01:57PM -25.4490 141.7390 102° East 559 643 39,000  Level FlightAware
01:58PM -25.4690 141.8510 101° East 559 643 39,000  Level FlightAware
01:59PM -25.4910 141.9750 101° East 559 643 39,000  Level FlightAware
01:59PM -25.5110 142.0870 101° East 559 643 39,000  Level FlightAware
02:02PM -25.5779 142.4058 103° East  Level Estimated
02:03PM -25.6075 142.5476 103° East  Level Estimated
02:03PM -25.6300 142.7560 103° East 558 642 39,000  Level FlightAware
02:04PM -25.6520 142.8880 101° East 558 642 39,000  Level FlightAware
02:05PM -25.6720 143.0000 101° East 558 642 39,000  Level FlightAware
02:05PM -25.6930 143.1240 101° East 557 641 39,000  Level FlightAware
02:06PM -25.7130 143.2420 101° East 557 641 39,000  Level FlightAware
02:07PM -25.7340 143.3620 101° East 556 640 39,000  Level FlightAware
02:07PM -25.7530 143.4740 101° East 556 640 39,000  Level FlightAware
02:08PM -25.7720 143.5860 101° East 557 641 39,000  Level FlightAware
02:09PM -25.7850 143.6680 100° East 558 642 39,000  Level FlightAware
02:09PM -25.8060 143.7940 101° East 559 643 39,000  Level FlightAware
02:10PM -25.8180 143.8680 100° East 560 644 39,000  Level FlightAware
02:11PM -25.8460 144.0310 101° East 560 644 39,000  Level FlightAware
02:11PM -25.8640 144.1450 100° East 560 644 39,000  Level FlightAware
02:12PM -25.8830 144.2580 101° East 560 644 39,000  Level FlightAware
02:13PM -25.9040 144.3880 100° East 560 644 39,000  Level FlightAware
02:14PM -25.9200 144.4900 100° East 560 644 39,000  Level FlightAware
02:14PM -25.9410 144.6230 100° East 560 644 39,000  Level FlightAware
02:15PM -25.9610 144.7450 100° East 561 646 39,000  Level FlightAware
02:16PM -25.9780 144.8530 100° East 561 646 39,000  Level FlightAware
02:17PM -26.0040 145.0170 100° East 559 643 39,000  Level FlightAware
02:17PM -26.0210 145.1250 100° East 559 643 39,000  Level FlightAware
02:18PM -26.0420 145.2600 100° East 556 640 39,000  Level FlightAware
02:19PM -26.0600 145.3760 100° East 556 640 39,000  Level FlightAware
02:19PM -26.0790 145.5000 100° East 555 639 39,000  Level FlightAware
02:20PM -26.0950 145.6040 100° East 555 639 39,000  Level FlightAware
02:21PM -26.1140 145.7300 100° East 555 639 39,000  Level FlightAware
02:21PM -26.1320 145.8460 100° East 556 640 39,000  Level FlightAware
02:22PM -26.1500 145.9650 100° East 557 641 39,000  Level FlightAware
02:23PM -26.1670 146.0830 99° East 557 641 39,000  Level FlightAware
02:24PM -26.1860 146.2080 100° East 557 641 39,000  Level FlightAware
02:24PM -26.2020 146.3150 99° East 557 641 39,000  Level FlightAware
02:25PM -26.2190 146.4310 99° East 557 641 39,000  Level FlightAware
02:26PM -26.2370 146.5590 99° East 559 643 39,000  Level FlightAware
02:26PM -26.2550 146.6780 100° East 559 643 39,000  Level FlightAware
02:27PM -26.2730 146.8060 99° East 558 642 39,000  Level FlightAware
02:28PM -26.2890 146.9170 99° East 557 641 39,000  Level FlightAware
02:29PM -26.3080 147.0550 99° East 556 640 39,000  Level FlightAware
02:30PM -26.3260 147.2000 98° East 556 640 39,000 120 Level FlightAware
02:30PM -26.3410 147.2835 98° East 550 633 39,200 180 Climbing Aus ATC (RADAR)
02:31PM -26.3563 147.4082 98° East 547 629 39,200 -240 Level Aus ATC (RADAR)
02:31PM -26.3470 147.3690 98° East 556 640 39,000 -240 Descending FlightAware
02:32PM -26.3650 147.4580 103° East 554 638 39,000 120 Level FlightAware
02:32PM -26.3926 147.6507 103° East 555 639 39,200  Climbing Aus ATC (RADAR)
02:33PM -26.4000 147.7050 103° East 558 642 39,000  Descending FlightAware
02:33PM -26.4182 147.8487 103° East 554 638 39,200  Climbing Aus ATC (RADAR)
02:33PM -26.4180 147.8420 103° East 558 642 39,000  Descending FlightAware
02:34PM -26.4442 148.0332 103° East 553 636 39,200  Climbing Aus ATC (RADAR)
02:35PM -26.4450 148.0500 103° East 558 642 39,000  Descending FlightAware
02:35PM -26.4683 148.2177 103° East 553 636 39,200  Climbing Aus ATC (RADAR)
02:36PM -26.4580 148.1540 103° East 558 642 39,000 -300 Descending FlightAware
02:36PM -26.4690 148.2410 98° East 558 642 39,000 180 Level FlightAware
02:37PM -26.4935 148.4017 98° East 553 636 39,200  Climbing Aus ATC (RADAR)
02:37PM -26.4810 148.3340 98° East 558 642 39,000 -240 Descending FlightAware
02:38PM -26.5120 148.5340 98° East 553 636 39,000 240 Level FlightAware
02:38PM -26.5210 148.5840 98° East 549 632 39,200  Climbing Aus ATC (RADAR)
02:38PM -26.5280 148.6470 99° East 553 636 39,000  Descending FlightAware
02:39PM -26.5529 148.7796 99° East 548 631 39,200  Climbing Aus ATC (RADAR)
02:39PM -26.5400 148.7330 99° East 553 636 39,000 -240 Descending FlightAware
02:40PM -26.5530 148.8240 99° East 553 636 39,000 180 Level FlightAware
02:40PM -26.5813 148.9595 99° East 542 624 39,200  Climbing Aus ATC (RADAR)
02:40PM -26.5670 148.9270 99° East 553 636 39,000 -180 Descending FlightAware
02:41PM -26.5840 149.0480 99° East 553 636 39,000  Level FlightAware
02:42PM -26.5960 149.1320 99° East 553 636 39,000 300 Level FlightAware
02:42PM -26.6373 149.3220 99° East 543 625 39,300  Climbing Aus ATC (RADAR)
02:43PM -26.6130 149.2470 99° East 553 636 39,000 -300 Descending FlightAware
02:43PM -26.6250 149.3330 99° East 553 636 39,000 420 Level FlightAware
02:43PM -26.6666 149.5170 99° East 543 625 39,300  Climbing Aus ATC (RADAR)
02:44PM -26.6410 149.4510 99° East 553 636 39,000  Descending FlightAware
02:45PM -26.7007 149.7400 99° East 541 623 39,300  Climbing Aus ATC (RADAR)
02:45PM -26.6540 149.5380 99° East 553 636 39,000 -420 Descending FlightAware
02:45PM -26.6690 149.6430 99° East 553 636 39,000 240 Level FlightAware
02:46PM -26.7282 149.9211 99° East 542 624 39,300  Climbing Aus ATC (RADAR)
02:46PM -26.6890 149.7880 99° East 553 636 39,000  Descending FlightAware
02:47PM -26.7576 150.1157 99° East 539 620 39,300  Climbing Aus ATC (RADAR)
02:47PM -26.7030 149.8840 99° East 553 636 39,000 -360 Descending FlightAware
02:48PM -26.7780 150.2520 103° East 549 632 39,000  Level FlightAware
02:49PM -26.8000 150.4060 99° East 550 633 39,000 180 Level FlightAware
02:49PM -26.8106 150.4795 99° East 544 626 39,300  Climbing Aus ATC (RADAR)
02:49PM -26.8190 150.5350 99° East 551 634 39,000 -1,440 Descending FlightAware
02:50PM -26.8371 150.6617 99° East 542 624 37,800 -2,160 Descending Aus ATC (RADAR)
02:50PM -26.8410 150.6840 99° East 553 636 37,100 -2,760 Descending FlightAware
02:51PM -26.8580 150.8040 99° East 556 640 35,400 -2,100 Descending FlightAware
02:51PM -26.8652 150.8603 99° East 546 628 35,000 -2,160 Descending Aus ATC (RADAR)
02:52PM -26.8760 150.9280 99° East 548 631 33,900 -1,980 Descending FlightAware
02:52PM -26.8911 151.0417 99° East 531 611 32,900 -1,800 Descending Aus ATC (RADAR)
02:52PM -26.8910 151.0390 99° East 538 619 32,700 -2,160 Descending FlightAware
02:53PM -26.9090 151.1620 99° East 524 603 31,300 -1,680 Descending FlightAware
02:54PM -26.9231 151.2698 99° East 509 586 30,400 -1,800 Descending Aus ATC (RADAR)
02:54PM -26.9240 151.2670 99° East 514 592 30,100 -1,920 Descending FlightAware
02:54PM -26.9401 151.3857 99° East 493 567 29,000 -1,740 Descending Aus ATC (RADAR)
02:54PM -26.9400 151.3840 99° East 498 573 28,800 -2,100 Descending FlightAware
02:55PM -26.9540 151.4850 99° East 484 557 27,600 -1,620 Descending FlightAware
02:55PM -26.9622 151.5480 99° East 474 545 27,100 -1,800 Descending Aus ATC (RADAR)
02:56PM -26.9680 151.5860 99° East 473 544 26,400 -2,040 Descending FlightAware
02:56PM -26.9820 151.6920 98° East 464 534 25,100 -1,680 Descending FlightAware
02:57PM -26.9900 151.7517 98° East 453 521 24,500 -1,980 Descending Aus ATC (RADAR)
02:57PM -26.9950 151.7860 98° East 454 522 23,800 -2,040 Descending FlightAware
02:58PM -27.0080 151.8780 99° East 445 512 22,600 -1,860 Descending FlightAware
02:59PM -27.0210 151.9790 98° East 434 499 21,200 -1,740 Descending FlightAware
02:59PM -27.0301 152.0461 98° East 422 486 20,500 -1,980 Descending Aus ATC (RADAR)
02:59PM -27.0330 152.0680 98° East 425 489 19,900 -1,200 Descending FlightAware
03:00PM -27.0410 152.1240 99° East 419 482 19,100 -1,800 Descending FlightAware
03:01PM -27.0610 152.2820 98° East 401 461 16,900 -2,460 Descending FlightAware
03:01PM -27.0702 152.3513 98° East 386 444 16,100 -1,800 Descending Aus ATC (RADAR)
03:02PM -27.0720 152.3630 98° East 392 451 15,700 -2,040 Descending FlightAware
03:02PM -27.0830 152.4430 99° East 381 438 14,500 -1,740 Descending FlightAware
03:03PM -27.0916 152.5190 99° East 370 426 13,500 -1,920 Descending Aus ATC (RADAR)
03:03PM -27.0940 152.5300 99° East 370 426 13,100 -1,920 Descending FlightAware
03:04PM -27.1030 152.6028 99° East 356 410 12,100 -1,980 Descending Aus ATC (RADAR)
03:04PM -27.1040 152.6050 99° East 361 415 11,800 -2,220 Descending FlightAware
03:04PM -27.1140 152.6870 98° East 354 407 10,400 -1,440 Descending FlightAware
03:05PM -27.1190 152.7314 98° East 347 399 10,200 -840 Descending Aus ATC (RADAR)
03:05PM -27.1250 152.7660 98° East 325 374 9,800 -600 Descending FlightAware
03:06PM -27.1300 152.8110 97° East 298 343 9,700 -600 Descending FlightAware
03:06PM -27.1350 152.8500 98° East 287 330 9,300 -1,500 Descending FlightAware
03:07PM -27.1410 152.8910 99° East 295 339 8,400 -1,680 Descending FlightAware
03:07PM -27.1460 152.9330 98° East 289 333 7,800 -960 Descending FlightAware
03:07PM -27.1490 152.9630 98° East 287 330 7,700 -840 Descending Aus ATC (RADAR)
03:07PM -27.1520 152.9770 98° East 278 320 7,400 -960 Descending FlightAware
03:08PM -27.1560 153.0130 97° East 262 302 7,100 -660 Descending FlightAware
03:08PM -27.1580 153.0290 98° East 252 290 7,000  Descending FlightAware
03:08PM -27.1610 153.0566 98° East 246 283 7,100 -840 Climbing Aus ATC (RADAR)
03:09PM -27.1630 153.0650 98° East 229 264 6,600 -2,340 Descending FlightAware
03:09PM -27.1650 153.0960 94° East 229 264 5,700 -1,440 Descending FlightAware
03:10PM -27.1648 153.1326 94° East 219 252 5,300 -1,140 Descending Aus ATC (RADAR)
03:10PM -27.1650 153.1330 94° East 215 247 5,100 -1,260 Descending FlightAware
03:10PM -27.1650 153.1610 90° East 196 226 4,700 -900 Descending FlightAware
03:10PM -27.1650 153.1880 90° East 181 208 4,300 -1,140 Descending FlightAware
03:11PM -27.1720 153.2000 123° Southeast 179 206 3,900 -1,320 Descending FlightAware
03:11PM -27.1900 153.2140 145° Southeast 183 211 3,400 -1,020 Descending FlightAware
03:12PM -27.2110 153.2240 157° South 188 216 3,000 -720 Descending FlightAware
03:12PM -27.2250 153.2190 198° South 182 209 2,900 -600 Descending FlightAware
03:12PM -27.2440 153.2080 207° Southwest 185 213 2,600 -600 Descending FlightAware
03:13PM -27.2662 153.1964 207° Southwest 188 216 2,400 -1,020 Descending Aus ATC (RADAR)
03:13PM -27.2680 153.1950 207° Southwest 191 220 2,100 -1,500 Descending FlightAware
03:13PM -27.2870 153.1840 207° Southwest 173 199 1,700 -900 Descending FlightAware
03:14PM -27.2980 153.1780 206° Southwest 160 184 1,500 -540 Descending FlightAware
03:14PM -27.3120 153.1700 206° Southwest 158 182 1,400 -960 Descending Aus ATC (RADAR)
03:14PM -27.3130 153.1690 206° Southwest 145 167 1,100 -1,320 Descending FlightAware
03:14PM -27.3250 153.1620 207° Southwest 144 166 900 -720 Descending FlightAware
03:15PM -27.3400 153.1540 205° Southwest 142 163 600 -540 Descending FlightAware
03:15PM -27.3670 153.1392 205° Southwest 137 158 300 -300 Descending Aus ATC (RADAR)
03:16PM -27.3600 153.1430 205° Southwest 135 155 200 -120 Descending FlightAware